SBSN Airport Information

Runway Information
Runway 10 Length 7874 ft width 148 ft
Elevation 0 ft Threshold 0 ft Heading 0
Runway 28 Length 7874 ft Width 148 ft
Elevation 0 ft Threshold 0 ft Heading 0
Airport Frequencies
Type APP Name APP Frequency 119.3 MHZ
Type TWR Name TWR Frequency 118.1 MHZ
Airport Navaids
Type VOR-DME Name Santarem Frequency 112300 KHZ
Type NDB Name Santarem Frequency 350 KHZ
Airport Weather Information & NOTAM
ADDS - METARS form results

(1453 UTC 22 July 2018)
 
METAR text: SBSN 221400Z 06005KT 9999 FEW017 BKN100 31/24 Q1013
Conditions at: SBSN (SANTAREM INTL AR, BR) observed 1400 UTC 22 July 2018
Temperature: 31.0°C (88°F)
Dewpoint: 24.0°C (75°F) [RH = 66%]
Pressure (altimeter): 29.91 inches Hg (1013.0 mb)
Winds: from the ENE (60 degrees) at 6 MPH (5 knots; 2.6 m/s)
Visibility: 6 or more miles (10+ km)
Ceiling: 10000 feet AGL
Clouds: few clouds at 1700 feet AGL
broken clouds at 10000 feet AGL
Weather: no significant weather observed at this time